Time,TemperatureF,DewpointF,PressureIn,WindDirection,WindDirectionDegrees,WindSpeedMPH,WindSpeedGustMPH,Humidity,HourlyPrecipIn,Conditions,Clouds,dailyrainin,SoftwareType,DateUTC
2013-06-29 00:00:00,64.2,61.8,29.52,North,349,0.0,0.0,92,0.00,,,0.09,Wunderground v.1.15,2013-06-29 04:00:00,
2013-06-29 00:05:00,64.2,61.5,29.51,North,349,0.0,0.0,91,0.00,,,0.00,Wunderground v.1.15,2013-06-29 04:05:00,
2013-06-29 00:10:00,64.3,61.3,29.51,NW,325,0.0,0.0,90,0.00,,,0.00,Wunderground v.1.15,2013-06-29 04:10:00,
2013-06-29 00:15:00,64.5,61.2,29.52,NW,324,0.0,1.0,89,0.00,,,0.00,Wunderground v.1.15,2013-06-29 04:15:00,
2013-06-29 00:20:00,64.7,61.4,29.52,WNW,284,1.0,1.0,89,0.00,,,0.00,Wunderground v.1.15,2013-06-29 04:20:00,
2013-06-29 00:25:00,65.0,62.3,29.52,WNW,285,1.0,1.0,91,0.00,,,0.00,Wunderground v.1.15,2013-06-29 04:25:00,
2013-06-29 00:35:00,64.9,60.9,29.52,WNW,300,1.0,2.0,87,0.00,,,0.00,Wunderground v.1.15,2013-06-29 04:35:00,
2013-06-29 00:40:00,65.1,61.1,29.52,SW,217,0.0,0.0,87,0.00,,,0.00,Wunderground v.1.15,2013-06-29 04:40:00,
2013-06-29 00:50:00,65.3,61.0,29.52,West,263,0.0,2.0,86,0.00,,,0.00,Wunderground v.1.15,2013-06-29 04:50:00,
2013-06-29 01:00:00,65.5,61.5,29.52,West,264,2.0,4.0,87,0.00,,,0.00,Wunderground v.1.15,2013-06-29 05:00:00,
2013-06-29 01:05:00,65.4,62.1,29.52,West,268,2.0,4.0,89,0.00,,,0.00,Wunderground v.1.15,2013-06-29 05:05:00,
2013-06-29 01:15:00,65.2,60.9,29.52,West,262,2.0,2.0,86,0.00,,,0.00,Wunderground v.1.15,2013-06-29 05:15:00,
2013-06-29 01:25:00,65.5,60.9,29.52,West,265,1.0,1.0,85,0.00,,,0.00,Wunderground v.1.15,2013-06-29 05:25:00,
2013-06-29 01:30:00,65.7,61.7,29.51,West,265,0.0,0.0,87,0.00,,,0.00,Wunderground v.1.15,2013-06-29 05:30:00,
2013-06-29 01:40:00,65.5,61.2,29.52,West,265,0.0,0.0,86,0.00,,,0.00,Wunderground v.1.15,2013-06-29 05:40:00,
2013-06-29 01:50:00,65.4,61.4,29.51,West,265,0.0,0.0,87,0.00,,,0.00,Wunderground v.1.15,2013-06-29 05:50:00,
2013-06-29 02:00:00,65.2,60.9,29.51,West,265,0.0,0.0,86,0.00,,,0.00,Wunderground v.1.15,2013-06-29 06:00:00,
2013-06-29 02:05:00,65.1,60.8,29.51,West,265,0.0,0.0,86,0.00,,,0.00,Wunderground v.1.15,2013-06-29 06:05:00,
2013-06-29 02:15:00,65.0,61.0,29.51,West,265,0.0,0.0,87,0.00,,,0.00,Wunderground v.1.15,2013-06-29 06:15:00,
2013-06-29 02:25:00,64.9,60.6,29.50,West,265,0.0,0.0,86,0.00,,,0.00,Wunderground v.1.15,2013-06-29 06:25:00,
2013-06-29 02:35:00,65.0,61.0,29.50,WNW,297,0.0,0.0,87,0.00,,,0.00,Wunderground v.1.15,2013-06-29 06:35:00,
2013-06-29 02:45:00,65.0,61.4,29.50,WNW,297,0.0,1.0,88,0.00,,,0.00,Wunderground v.1.15,2013-06-29 06:45:00,
2013-06-29 02:55:00,64.7,60.7,29.49,North,359,1.0,3.0,87,0.00,,,0.00,Wunderground v.1.15,2013-06-29 06:55:00,
2013-06-29 03:05:00,64.8,60.2,29.49,WSW,240,1.0,2.0,85,0.00,,,0.00,Wunderground v.1.15,2013-06-29 07:05:00,
2013-06-29 03:15:00,65.0,60.4,29.48,WSW,240,0.0,1.0,85,0.00,,,0.00,Wunderground v.1.15,2013-06-29 07:15:00,
2013-06-29 03:25:00,65.0,60.7,29.48,WSW,237,0.0,0.0,86,0.00,,,0.00,Wunderground v.1.15,2013-06-29 07:25:00,
2013-06-29 03:35:00,64.9,60.6,29.48,WSW,237,0.0,1.0,86,0.00,,,0.00,Wunderground v.1.15,2013-06-29 07:35:00,
2013-06-29 03:45:00,65.1,59.8,29.48,SSW,205,1.0,2.0,83,0.00,,,0.00,Wunderground v.1.15,2013-06-29 07:45:00,
2013-06-29 03:50:00,65.4,60.8,29.48,South,186,2.0,2.0,85,0.00,,,0.00,Wunderground v.1.15,2013-06-29 07:50:00,
2013-06-29 04:00:00,64.9,60.9,29.49,SW,218,1.0,2.0,87,0.00,,,0.00,Wunderground v.1.15,2013-06-29 08:00:00,
2013-06-29 04:05:00,64.5,60.9,29.49,SW,225,1.0,5.0,88,0.00,,,0.00,Wunderground v.1.15,2013-06-29 08:05:00,
2013-06-29 04:15:00,64.9,59.6,29.49,SSW,200,3.0,5.0,83,0.00,,,0.00,Wunderground v.1.15,2013-06-29 08:15:00,
2013-06-29 04:20:00,65.3,60.3,29.49,WSW,251,3.0,6.0,84,0.00,,,0.00,Wunderground v.1.15,2013-06-29 08:20:00,
2013-06-29 04:30:00,65.2,59.9,29.50,ENE,68,3.0,3.0,83,0.00,,,0.00,Wunderground v.1.15,2013-06-29 08:30:00,
2013-06-29 04:40:00,65.0,60.0,29.50,SW,228,5.0,6.0,84,0.00,,,0.00,Wunderground v.1.15,2013-06-29 08:40:00,
2013-06-29 04:50:00,65.2,60.2,29.50,SW,223,7.0,15.0,84,0.00,,,0.00,Wunderground v.1.15,2013-06-29 08:50:00,
2013-06-29 05:00:00,65.4,60.4,29.50,SW,218,7.0,7.0,84,0.00,,,0.00,Wunderground v.1.15,2013-06-29 09:00:00,
2013-06-29 05:05:00,65.3,60.3,29.50,WSW,251,7.0,7.0,84,0.00,,,0.00,Wunderground v.1.15,2013-06-29 09:05:00,
2013-06-29 05:15:00,65.4,60.4,29.50,SSW,211,6.0,7.0,84,0.00,,,0.00,Wunderground v.1.15,2013-06-29 09:15:00,
2013-06-29 05:20:00,65.4,60.1,29.51,NW,320,5.0,5.0,83,0.00,,,0.00,Wunderground v.1.15,2013-06-29 09:20:00,
2013-06-29 05:30:00,65.2,60.6,29.51,WSW,239,1.0,1.0,85,0.00,,,0.00,Wunderground v.1.15,2013-06-29 09:30:00,
2013-06-29 05:40:00,64.6,60.3,29.51,West,270,1.0,1.0,86,0.00,,,0.00,Wunderground v.1.15,2013-06-29 09:40:00,
2013-06-29 05:50:00,64.3,60.0,29.52,NW,305,0.0,0.0,86,0.00,,,0.00,Wunderground v.1.15,2013-06-29 09:50:00,
2013-06-29 06:00:00,63.9,60.0,29.52,NW,305,0.0,0.0,87,0.00,,,0.00,Wunderground v.1.15,2013-06-29 10:00:00,
2013-06-29 06:05:00,63.6,60.0,29.52,NW,305,0.0,1.0,88,0.00,,,0.00,Wunderground v.1.15,2013-06-29 10:05:00,
2013-06-29 06:15:00,63.1,59.8,29.53,West,271,1.0,1.0,89,0.00,,,0.00,Wunderground v.1.15,2013-06-29 10:15:00,
2013-06-29 06:25:00,62.7,59.7,29.53,West,272,0.0,0.0,90,0.00,,,0.00,Wunderground v.1.15,2013-06-29 10:25:00,
2013-06-29 06:35:00,62.4,59.7,29.53,West,271,0.0,0.0,91,0.00,,,0.00,Wunderground v.1.15,2013-06-29 10:35:00,
2013-06-29 06:40:00,62.2,59.5,29.53,WSW,253,0.0,0.0,91,0.00,,,0.00,Wunderground v.1.15,2013-06-29 10:40:00,
2013-06-29 06:50:00,62.2,59.5,29.54,WNW,300,0.0,0.0,91,0.00,,,0.00,Wunderground v.1.15,2013-06-29 10:50:00,
2013-06-29 07:00:00,62.5,60.1,29.54,WNW,300,0.0,1.0,92,0.00,,,0.00,Wunderground v.1.15,2013-06-29 11:00:00,
2013-06-29 07:05:00,62.6,60.2,29.55,WNW,300,0.0,1.0,92,0.00,,,0.00,Wunderground v.1.15,2013-06-29 11:05:00,
2013-06-29 07:15:00,62.8,60.4,29.55,WNW,300,0.0,0.0,92,0.00,,,0.00,Wunderground v.1.15,2013-06-29 11:15:00,
2013-06-29 07:25:00,63.1,60.7,29.55,WNW,300,0.0,1.0,92,0.00,,,0.00,Wunderground v.1.15,2013-06-29 11:25:00,
2013-06-29 07:35:00,63.4,60.7,29.55,WNW,300,0.0,0.0,91,0.00,,,0.00,Wunderground v.1.15,2013-06-29 11:35:00,
2013-06-29 07:45:00,64.2,60.9,29.56,SSW,201,2.0,2.0,89,0.00,,,0.00,Wunderground v.1.15,2013-06-29 11:45:00,
2013-06-29 07:55:00,64.9,61.3,29.56,WSW,241,1.0,3.0,88,0.00,,,0.00,Wunderground v.1.15,2013-06-29 11:55:00,
2013-06-29 08:05:00,65.9,61.6,29.56,WSW,247,2.0,2.0,86,0.00,,,0.00,Wunderground v.1.15,2013-06-29 12:05:00,
2013-06-29 08:15:00,66.4,62.4,29.57,SW,230,1.0,2.0,87,0.00,,,0.00,Wunderground v.1.15,2013-06-29 12:15:00,
2013-06-29 08:25:00,66.9,62.6,29.56,SW,235,1.0,5.0,86,0.00,,,0.00,Wunderground v.1.15,2013-06-29 12:25:00,
2013-06-29 08:35:00,67.6,62.3,29.57,SSW,201,3.0,3.0,83,0.00,,,0.00,Wunderground v.1.15,2013-06-29 12:35:00,
2013-06-29 08:45:00,68.5,62.8,29.57,WNW,293,3.0,4.0,82,0.00,,,0.00,Wunderground v.1.15,2013-06-29 12:45:00,
2013-06-29 08:55:00,69.1,62.3,29.57,WSW,239,2.0,3.0,79,0.00,,,0.00,Wunderground v.1.15,2013-06-29 12:55:00,
2013-06-29 09:05:00,69.8,62.3,29.57,SW,214,2.0,3.0,77,0.00,,,0.00,Wunderground v.1.15,2013-06-29 13:05:00,
2013-06-29 09:15:00,70.5,63.7,29.57,SSW,211,3.0,3.0,79,0.00,,,0.00,Wunderground v.1.15,2013-06-29 13:15:00,
2013-06-29 09:20:00,70.8,63.6,29.57,SW,235,3.0,3.0,78,0.00,,,0.00,Wunderground v.1.15,2013-06-29 13:20:00,
2013-06-29 09:30:00,71.5,63.2,29.57,WSW,246,4.0,4.0,75,0.00,,,0.00,Wunderground v.1.15,2013-06-29 13:30:00,
2013-06-29 09:40:00,71.7,63.0,29.57,SW,222,2.0,2.0,74,0.00,,,0.00,Wunderground v.1.15,2013-06-29 13:40:00,
2013-06-29 09:50:00,72.3,63.9,29.57,SSW,205,3.0,3.0,75,0.00,,,0.00,Wunderground v.1.15,2013-06-29 13:50:00,
2013-06-29 10:00:00,72.8,64.8,29.57,WSW,252,2.0,2.0,76,0.00,,,0.00,Wunderground v.1.15,2013-06-29 14:00:00,
2013-06-29 10:05:00,73.0,63.0,29.57,SW,231,2.0,3.0,71,0.00,,,0.01,Wunderground v.1.15,2013-06-29 14:05:00,
2013-06-29 10:15:00,73.5,63.9,29.57,SSW,198,2.0,2.0,72,0.00,,,0.01,Wunderground v.1.15,2013-06-29 14:15:00,
2013-06-29 10:25:00,73.8,63.4,29.56,West,260,2.0,3.0,70,0.00,,,0.01,Wunderground v.1.15,2013-06-29 14:25:00,
2013-06-29 10:30:00,73.8,63.8,29.57,SW,234,1.0,3.0,71,0.00,,,0.01,Wunderground v.1.15,2013-06-29 14:30:00,
2013-06-29 10:40:00,74.2,63.0,29.57,WSW,239,4.0,4.0,68,0.00,,,0.01,Wunderground v.1.15,2013-06-29 14:40:00,
2013-06-29 10:45:00,74.7,64.3,29.57,West,262,4.0,4.0,70,0.00,,,0.01,Wunderground v.1.15,2013-06-29 14:45:00,
2013-06-29 10:55:00,75.1,62.1,29.56,East,97,3.0,3.0,64,0.00,,,0.01,Wunderground v.1.15,2013-06-29 14:55:00,
2013-06-29 11:05:00,75.6,65.1,29.56,WSW,254,2.0,8.0,70,0.00,,,0.01,Wunderground v.1.15,2013-06-29 15:05:00,
2013-06-29 11:15:00,76.7,63.6,29.57,SW,224,4.0,5.0,64,0.00,,,0.01,Wunderground v.1.15,2013-06-29 15:15:00,
2013-06-29 11:25:00,77.2,62.2,29.57,SW,214,4.0,4.0,60,0.00,,,0.01,Wunderground v.1.15,2013-06-29 15:25:00,
2013-06-29 11:35:00,77.2,62.2,29.57,WSW,253,4.0,5.0,60,0.00,,,0.01,Wunderground v.1.15,2013-06-29 15:35:00,
2013-06-29 11:40:00,77.8,65.1,29.56,NE,41,3.0,3.0,65,0.00,,,0.01,Wunderground v.1.15,2013-06-29 15:40:00,
2013-06-29 11:50:00,78.4,61.9,29.56,West,278,2.0,4.0,57,0.00,,,0.01,Wunderground v.1.15,2013-06-29 15:50:00,
2013-06-29 12:00:00,79.2,62.1,29.56,SW,228,4.0,4.0,56,0.00,,,0.01,Wunderground v.1.15,2013-06-29 16:00:00,
2013-06-29 12:05:00,79.5,65.3,29.56,SW,228,3.0,6.0,62,0.00,,,0.01,Wunderground v.1.15,2013-06-29 16:05:00,
2013-06-29 12:15:00,79.9,62.3,29.56,West,272,5.0,5.0,55,0.00,,,0.01,Wunderground v.1.15,2013-06-29 16:15:00,
2013-06-29 12:25:00,80.5,62.8,29.56,West,259,3.0,4.0,55,0.00,,,0.01,Wunderground v.1.15,2013-06-29 16:25:00,
2013-06-29 12:35:00,80.5,61.3,29.55,SSW,195,5.0,5.0,52,0.00,,,0.01,Wunderground v.1.15,2013-06-29 16:35:00,
2013-06-29 12:40:00,80.9,63.7,29.55,NW,314,4.0,4.0,56,0.00,,,0.01,Wunderground v.1.15,2013-06-29 16:40:00,
2013-06-29 12:50:00,81.6,65.9,29.55,SW,227,3.0,4.0,59,0.00,,,0.01,Wunderground v.1.15,2013-06-29 16:50:00,
2013-06-29 13:00:00,82.6,65.8,29.55,SW,216,2.0,2.0,57,0.00,,,0.01,Wunderground v.1.15,2013-06-29 17:00:00,
2013-06-29 13:05:00,83.1,64.7,29.55,SW,227,2.0,4.0,54,0.00,,,0.01,Wunderground v.1.15,2013-06-29 17:05:00,
2013-06-29 13:15:00,83.1,62.5,29.55,NNW,335,2.0,2.0,50,0.00,,,0.01,Wunderground v.1.15,2013-06-29 17:15:00,
2013-06-29 13:25:00,80.6,65.9,29.55,SW,217,2.0,3.0,61,0.00,,,0.01,Wunderground v.1.15,2013-06-29 17:25:00,
2013-06-29 13:35:00,81.3,66.1,29.55,West,273,2.0,6.0,60,0.00,,,0.01,Wunderground v.1.15,2013-06-29 17:35:00,
2013-06-29 13:45:00,82.7,64.9,29.55,SW,227,4.0,7.0,55,0.00,,,0.01,Wunderground v.1.15,2013-06-29 17:45:00,
2013-06-29 13:55:00,81.3,64.6,29.55,WSW,247,3.0,4.0,57,0.00,,,0.01,Wunderground v.1.15,2013-06-29 17:55:00,
2013-06-29 14:00:00,81.5,64.8,29.54,WSW,253,2.0,4.0,57,0.00,,,0.01,Wunderground v.1.15,2013-06-29 18:00:00,
2013-06-29 14:05:00,82.4,64.6,29.54,SW,222,2.0,5.0,55,0.00,,,0.01,Wunderground v.1.15,2013-06-29 18:05:00,
2013-06-29 14:15:00,81.6,64.9,29.54,SW,233,1.0,2.0,57,0.00,,,0.01,Wunderground v.1.15,2013-06-29 18:15:00,
2013-06-29 14:25:00,80.5,62.8,29.54,WSW,239,4.0,7.0,55,0.00,,,0.01,Wunderground v.1.15,2013-06-29 18:25:00,
2013-06-29 14:35:00,82.3,62.9,29.54,West,272,5.0,5.0,52,0.00,,,0.01,Wunderground v.1.15,2013-06-29 18:35:00,
2013-06-29 14:40:00,83.0,63.6,29.53,SSW,195,5.0,5.0,52,0.00,,,0.01,Wunderground v.1.15,2013-06-29 18:40:00,
2013-06-29 14:50:00,83.9,62.7,29.53,SW,231,4.0,4.0,49,0.00,,,0.01,Wunderground v.1.15,2013-06-29 18:50:00,
2013-06-29 15:00:00,85.4,63.5,29.53,WSW,258,3.0,3.0,48,0.00,,,0.01,Wunderground v.1.15,2013-06-29 19:00:00,
2013-06-29 15:05:00,84.6,66.1,29.53,SW,214,2.0,6.0,54,0.00,,,0.01,Wunderground v.1.15,2013-06-29 19:05:00,
2013-06-29 15:15:00,84.8,66.3,29.53,South,187,4.0,4.0,54,0.00,,,0.01,Wunderground v.1.15,2013-06-29 19:15:00,
2013-06-29 15:25:00,85.0,62.5,29.53,SW,231,3.0,4.0,47,0.00,,,0.01,Wunderground v.1.15,2013-06-29 19:25:00,
2013-06-29 15:30:00,84.9,63.6,29.53,SW,216,4.0,4.0,49,0.00,,,0.01,Wunderground v.1.15,2013-06-29 19:30:00,
2013-06-29 15:40:00,84.6,61.5,29.54,WSW,248,4.0,4.0,46,0.00,,,0.01,Wunderground v.1.15,2013-06-29 19:40:00,
2013-06-29 15:50:00,82.5,63.6,29.54,West,264,3.0,4.0,53,0.00,,,0.01,Wunderground v.1.15,2013-06-29 19:50:00,
2013-06-29 15:55:00,81.6,64.4,29.54,SW,231,4.0,5.0,56,0.00,,,0.01,Wunderground v.1.15,2013-06-29 19:55:00,
2013-06-29 16:05:00,80.9,63.7,29.54,WSW,239,4.0,5.0,56,0.00,,,0.01,Wunderground v.1.15,2013-06-29 20:05:00,
2013-06-29 16:15:00,79.6,64.5,29.55,SW,221,5.0,5.0,60,0.00,,,0.01,Wunderground v.1.15,2013-06-29 20:15:00,
2013-06-29 16:25:00,78.2,63.6,29.55,SSW,213,5.0,5.0,61,0.00,,,0.01,Wunderground v.1.15,2013-06-29 20:25:00,
2013-06-29 16:35:00,77.2,65.4,29.56,SW,233,4.0,4.0,67,0.00,,,0.01,Wunderground v.1.15,2013-06-29 20:35:00,
2013-06-29 16:45:00,76.6,66.5,29.55,SW,233,0.0,2.0,71,0.00,,,0.01,Wunderground v.1.15,2013-06-29 20:45:00,
2013-06-29 16:55:00,76.2,67.3,29.55,SSW,204,1.0,3.0,74,0.00,,,0.01,Wunderground v.1.15,2013-06-29 20:55:00,
2013-06-29 17:05:00,76.6,65.7,29.55,SW,235,4.0,4.0,69,0.00,,,0.01,Wunderground v.1.15,2013-06-29 21:05:00,
2013-06-29 17:15:00,78.2,66.8,29.55,NNW,336,3.0,4.0,68,0.00,,,0.01,Wunderground v.1.15,2013-06-29 21:15:00,
2013-06-29 17:25:00,79.7,63.6,29.54,SW,223,4.0,4.0,58,0.00,,,0.01,Wunderground v.1.15,2013-06-29 21:25:00,
2013-06-29 17:35:00,80.4,65.7,29.54,SW,220,2.0,4.0,61,0.00,,,0.01,Wunderground v.1.15,2013-06-29 21:35:00,
2013-06-29 17:45:00,80.5,64.9,29.55,SW,233,2.0,2.0,59,0.00,,,0.01,Wunderground v.1.15,2013-06-29 21:45:00,
2013-06-29 17:55:00,80.1,65.9,29.55,SW,233,0.0,1.0,62,0.00,,,0.01,Wunderground v.1.15,2013-06-29 21:55:00,
2013-06-29 18:00:00,80.2,67.8,29.55,SW,233,0.0,0.0,66,0.00,,,0.01,Wunderground v.1.15,2013-06-29 22:00:00,
2013-06-29 18:05:00,79.9,67.5,29.55,SW,233,0.0,0.0,66,0.00,,,0.01,Wunderground v.1.15,2013-06-29 22:05:00,
2013-06-29 18:15:00,79.3,67.8,29.55,SW,233,0.0,0.0,68,0.00,,,0.01,Wunderground v.1.15,2013-06-29 22:15:00,
2013-06-29 18:25:00,78.9,67.0,29.55,SW,233,0.0,0.0,67,0.00,,,0.01,Wunderground v.1.15,2013-06-29 22:25:00,
2013-06-29 18:35:00,77.5,67.4,29.56,SW,233,0.0,1.0,71,0.00,,,0.01,Wunderground v.1.15,2013-06-29 22:35:00,
2013-06-29 18:45:00,76.3,68.2,29.57,SW,233,0.0,1.0,76,0.00,,,0.01,Wunderground v.1.15,2013-06-29 22:45:00,
2013-06-29 18:55:00,75.5,67.4,29.57,SW,233,0.0,0.0,76,0.00,,,0.01,Wunderground v.1.15,2013-06-29 22:55:00,
2013-06-29 19:00:00,75.2,66.7,29.57,SW,233,0.0,0.0,75,0.00,,,0.01,Wunderground v.1.15,2013-06-29 23:00:00,
2013-06-29 19:05:00,75.1,66.6,29.58,SW,233,0.0,0.0,75,0.00,,,0.01,Wunderground v.1.15,2013-06-29 23:05:00,
2013-06-29 19:15:00,74.8,66.7,29.58,WNW,300,0.0,3.0,76,0.00,,,0.01,Wunderground v.1.15,2013-06-29 23:15:00,
2013-06-29 19:25:00,74.8,65.2,29.59,West,278,0.0,6.0,72,0.00,,,0.01,Wunderground v.1.15,2013-06-29 23:25:00,
2013-06-29 19:35:00,74.8,65.2,29.58,West,281,1.0,4.0,72,0.00,,,0.01,Wunderground v.1.15,2013-06-29 23:35:00,
2013-06-29 19:40:00,74.7,66.2,29.59,WSW,239,2.0,7.0,75,0.00,,,0.01,Wunderground v.1.15,2013-06-29 23:40:00,
2013-06-29 19:50:00,73.4,65.0,29.59,WSW,251,3.0,4.0,75,0.00,,,0.01,Wunderground v.1.15,2013-06-29 23:50:00,
2013-06-29 20:00:00,72.4,65.2,29.60,SW,226,1.0,1.0,78,0.00,,,0.01,Wunderground v.1.15,2013-06-30 00:00:00,
2013-06-29 20:05:00,72.0,64.4,29.60,SW,226,0.0,1.0,77,0.00,,,0.01,Wunderground v.1.15,2013-06-30 00:05:00,
2013-06-29 20:15:00,71.6,63.6,29.60,WSW,239,1.0,2.0,76,0.00,,,0.01,Wunderground v.1.15,2013-06-30 00:15:00,
2013-06-29 20:25:00,71.4,63.1,29.59,WSW,239,1.0,2.0,75,0.00,,,0.01,Wunderground v.1.15,2013-06-30 00:25:00,
2013-06-29 20:35:00,71.2,62.5,29.60,WSW,242,0.0,1.0,74,0.00,,,0.01,Wunderground v.1.15,2013-06-30 00:35:00,
2013-06-29 20:40:00,71.1,62.0,29.60,WSW,242,0.0,0.0,73,0.00,,,0.01,Wunderground v.1.15,2013-06-30 00:40:00,
2013-06-29 20:50:00,71.0,61.9,29.61,WSW,243,0.0,0.0,73,0.00,,,0.01,Wunderground v.1.15,2013-06-30 00:50:00,
2013-06-29 21:00:00,70.7,62.0,29.61,WSW,243,0.0,0.0,74,0.00,,,0.01,Wunderground v.1.15,2013-06-30 01:00:00,
2013-06-29 21:05:00,70.4,62.1,29.61,WSW,243,0.0,1.0,75,0.00,,,0.01,Wunderground v.1.15,2013-06-30 01:05:00,
2013-06-29 21:15:00,69.7,61.8,29.61,WSW,243,1.0,1.0,76,0.00,,,0.01,Wunderground v.1.15,2013-06-30 01:15:00,
2013-06-29 21:25:00,69.3,62.9,29.62,WSW,243,0.0,0.0,80,0.00,,,0.01,Wunderground v.1.15,2013-06-30 01:25:00,
2013-06-29 21:35:00,68.7,62.3,29.63,ENE,71,0.0,1.0,80,0.00,,,0.01,Wunderground v.1.15,2013-06-30 01:35:00,
2013-06-29 21:40:00,68.5,61.7,29.63,ENE,71,0.0,0.0,79,0.00,,,0.01,Wunderground v.1.15,2013-06-30 01:40:00,
2013-06-29 21:50:00,68.1,61.0,29.64,ENE,71,0.0,0.0,78,0.00,,,0.01,Wunderground v.1.15,2013-06-30 01:50:00,
2013-06-29 22:00:00,68.0,61.6,29.64,WNW,301,0.0,0.0,80,0.00,,,0.01,Wunderground v.1.15,2013-06-30 02:00:00,
2013-06-29 22:05:00,67.9,61.9,29.65,West,274,1.0,1.0,81,0.00,,,0.01,Wunderground v.1.15,2013-06-30 02:05:00,
2013-06-29 22:15:00,67.6,61.9,29.65,West,274,0.0,0.0,82,0.00,,,0.01,Wunderground v.1.15,2013-06-30 02:15:00,
2013-06-29 22:20:00,67.6,61.9,29.65,West,274,0.0,0.0,82,0.00,,,0.01,Wunderground v.1.15,2013-06-30 02:20:00,
2013-06-29 22:30:00,67.7,61.7,29.65,NW,312,0.0,0.0,81,0.00,,,0.01,Wunderground v.1.15,2013-06-30 02:30:00,
2013-06-29 22:40:00,67.6,62.3,29.65,NW,312,0.0,0.0,83,0.00,,,0.01,Wunderground v.1.15,2013-06-30 02:40:00,
2013-06-29 22:45:00,67.4,61.7,29.65,NW,312,0.0,0.0,82,0.00,,,0.01,Wunderground v.1.15,2013-06-30 02:45:00,
2013-06-29 22:55:00,67.2,61.9,29.65,NW,312,0.0,0.0,83,0.00,,,0.01,Wunderground v.1.15,2013-06-30 02:55:00,
2013-06-29 23:05:00,67.0,61.3,29.65,NW,312,0.0,0.0,82,0.00,,,0.01,Wunderground v.1.15,2013-06-30 03:05:00,
2013-06-29 23:15:00,66.7,61.4,29.65,NW,312,0.0,1.0,83,0.00,,,0.01,Wunderground v.1.15,2013-06-30 03:15:00,
2013-06-29 23:25:00,66.3,61.3,29.65,NW,312,0.0,0.0,84,0.00,,,0.01,Wunderground v.1.15,2013-06-30 03:25:00,
2013-06-29 23:35:00,65.9,61.3,29.66,NW,312,0.0,0.0,85,0.00,,,0.01,Wunderground v.1.15,2013-06-30 03:35:00,
2013-06-29 23:45:00,65.5,61.5,29.65,NW,312,0.0,1.0,87,0.00,,,0.01,Wunderground v.1.15,2013-06-30 03:45:00,
2013-06-29 23:55:00,65.2,61.6,29.65,NW,312,0.0,0.0,88,0.00,,,0.01,Wunderground v.1.15,2013-06-30 03:55:00,